Time;durP1;ratioP1;P1;durP2;ratioP2;P2;SDS_P1;SDS_P2;PMS_P1;PMS_P2;Temp;Humidity;BMP_temperature;BMP_pressure;BME280_temperature;BME280_humidity;BME280_pressure;Samples;Min_cycle;Max_cycle;Signal;HPM_P1;HPM_P2
2022/06/27 00:00:34;;;;;;;0.10;0.10;;;;;;;21.88;57.32;101615.78;5074163;28;20486;-80
2022/06/27 00:03:00;;;;;;;0.00;0.00;;;;;;;21.87;57.39;101619.44;5069175;28;20036;-80
2022/06/27 00:05:26;;;;;;;0.00;0.00;;;;;;;21.87;57.52;101622.13;5072542;28;20028;-78
2022/06/27 00:07:53;;;;;;;0.47;0.47;;;;;;;21.87;57.49;101624.84;5075180;28;20037;-79
2022/06/27 00:10:19;;;;;;;0.25;0.25;;;;;;;21.87;57.17;101619.44;5078893;28;20039;-78
2022/06/27 00:12:45;;;;;;;0.10;0.10;;;;;;;21.88;57.57;101631.97;5070278;28;20059;-79
2022/06/27 00:15:11;;;;;;;0.10;0.10;;;;;;;21.88;57.95;101621.19;5072313;28;21197;-80
2022/06/27 00:17:39;;;;;;;0.10;0.10;;;;;;;21.87;57.84;101630.22;5072691;28;20054;-81
2022/06/27 00:20:06;;;;;;;0.15;0.15;;;;;;;21.85;57.97;101625.88;5057155;28;20062;-79
2022/06/27 00:22:32;;;;;;;0.05;0.05;;;;;;;21.80;57.80;101626.13;5076464;28;20040;-79
2022/06/27 00:24:59;;;;;;;0.20;0.20;;;;;;;21.79;57.75;101624.38;5069447;28;20033;-80
2022/06/27 00:27:25;;;;;;;0.00;0.00;;;;;;;21.77;57.55;101618.19;5073906;28;20033;-80
2022/06/27 00:29:51;;;;;;;0.28;0.28;;;;;;;21.74;57.86;101621.06;5081141;28;20024;-79
2022/06/27 00:32:18;;;;;;;0.00;0.00;;;;;;;21.75;57.88;101625.50;5074004;28;20021;-78
2022/06/27 00:34:44;;;;;;;0.00;0.00;;;;;;;21.73;58.09;101619.31;5075370;28;20024;-79
2022/06/27 00:37:10;;;;;;;0.10;0.10;;;;;;;21.72;58.10;101631.06;5087698;28;20482;-78
2022/06/27 00:39:36;;;;;;;0.00;0.00;;;;;;;21.72;58.39;101641.84;5082331;28;20048;-79
2022/06/27 00:42:03;;;;;;;0.00;0.00;;;;;;;21.70;58.44;101643.78;5081891;28;20028;-80
2022/06/27 00:44:34;;;;;;;0.00;0.00;;;;;;;21.72;58.71;101652.63;5081309;28;20119;-80
2022/06/27 00:47:01;;;;;;;0.07;0.07;;;;;;;21.68;59.10;101657.31;5082668;28;20032;-78
2022/06/27 00:49:27;;;;;;;0.20;0.20;;;;;;;21.68;58.86;101651.06;5081831;28;20021;-80
2022/06/27 00:51:54;;;;;;;0.10;0.10;;;;;;;21.68;58.75;101661.84;5078603;28;20040;-80
2022/06/27 00:54:22;;;;;;;0.10;0.10;;;;;;;21.65;58.71;101669.16;5081360;28;20119;-79
2022/06/27 00:56:49;;;;;;;0.10;0.10;;;;;;;21.66;58.83;101664.63;5085621;28;20059;-78
2022/06/27 00:59:15;;;;;;;0.10;0.10;;;;;;;21.64;58.99;101664.69;5079781;28;20025;-81
2022/06/27 01:01:42;;;;;;;0.10;0.10;;;;;;;21.63;59.12;101657.59;5086282;28;20044;-81
2022/06/27 01:04:08;;;;;;;0.13;0.13;;;;;;;21.62;58.96;101649.56;5083889;28;20048;-80
2022/06/27 01:06:34;;;;;;;0.00;0.00;;;;;;;21.62;59.20;101652.25;5080639;28;20035;-78
2022/06/27 01:09:01;;;;;;;0.30;0.30;;;;;;;21.59;58.75;101647.91;5077031;28;20021;-79
2022/06/27 01:11:27;;;;;;;0.10;0.10;;;;;;;21.58;58.88;101648.88;5079503;28;20036;-79
2022/06/27 01:13:53;;;;;;;0.10;0.10;;;;;;;21.55;58.77;101646.28;5084905;28;20115;-80
2022/06/27 01:16:19;;;;;;;0.55;0.55;;;;;;;21.54;58.71;101649.09;5087081;28;20028;-79
2022/06/27 01:18:46;;;;;;;0.00;0.00;;;;;;;21.52;58.54;101645.59;5082229;28;20041;-81
2022/06/27 01:21:21;;;;;;;0.03;0.03;;;;;;;21.55;58.62;101630.13;5082985;28;20031;-80
2022/06/27 01:23:48;;;;;;;0.13;0.13;;;;;;;21.49;58.99;101642.09;5081758;28;20054;-80
2022/06/27 01:26:16;;;;;;;0.10;0.10;;;;;;;21.48;58.87;101645.78;5082208;28;20043;-80
2022/06/27 01:28:43;;;;;;;0.00;0.00;;;;;;;21.46;58.92;101642.28;5076115;28;20186;-80
2022/06/27 01:31:17;;;;;;;0.10;0.10;;;;;;;21.48;58.74;101650.28;5075331;28;20505;-79
2022/06/27 01:33:43;;;;;;;0.10;0.10;;;;;;;21.42;59.00;101655.97;5083646;28;20037;-79
2022/06/27 01:38:56;;;;;;;0.10;0.10;;;;;;;21.39;58.94;101656.16;5083385;28;20036;-79
2022/06/27 01:41:22;;;;;;;0.00;0.00;;;;;;;21.38;59.07;101654.41;5083543;28;20020;-80
2022/06/27 01:43:49;;;;;;;0.15;0.15;;;;;;;21.37;58.98;101658.94;5082564;28;20085;-80
2022/06/27 01:46:16;;;;;;;0.68;0.68;;;;;;;21.37;59.04;101655.38;5080668;28;20084;-80
2022/06/27 01:48:42;;;;;;;0.10;0.10;;;;;;;21.36;58.82;101656.31;5079055;28;20028;-81
2022/06/27 01:51:09;;;;;;;0.10;0.10;;;;;;;21.34;59.05;101654.56;5077388;28;20032;-80
2022/06/27 01:53:37;;;;;;;0.03;0.03;;;;;;;21.34;58.91;101654.56;5078789;28;20043;-80
2022/06/27 01:56:05;;;;;;;0.60;0.55;;;;;;;21.33;58.70;101650.16;5076600;28;20024;-79
2022/06/27 01:58:32;;;;;;;0.10;0.10;;;;;;;21.33;58.74;101649.25;5084769;28;20033;-80
2022/06/27 02:00:59;;;;;;;0.05;0.05;;;;;;;21.31;58.50;101633.19;5071866;28;20035;-80
2022/06/27 02:03:25;;;;;;;0.65;0.65;;;;;;;21.30;58.37;101631.44;5082228;28;20541;-81
2022/06/27 02:05:52;;;;;;;0.10;0.10;;;;;;;21.29;58.29;101618.91;5083949;28;20039;-80
2022/06/27 02:08:22;;;;;;;0.10;0.10;;;;;;;21.31;58.43;101614.31;5081438;28;20035;-81
2022/06/27 02:10:48;;;;;;;0.00;0.00;;;;;;;21.29;58.61;101612.66;5081442;28;20043;-79
2022/06/27 02:13:15;;;;;;;0.10;0.10;;;;;;;21.27;58.55;101606.47;5083180;28;20032;-79
2022/06/27 02:16:06;;;;;;;0.10;0.10;;;;;;;21.33;58.58;101608.81;5079098;28;20024;-82
2022/06/27 02:18:34;;;;;;;0.25;0.25;;;;;;;21.22;58.81;101606.72;5078729;28;20037;-79
2022/06/27 02:21:00;;;;;;;0.00;0.00;;;;;;;21.19;58.86;101609.56;5073942;28;20028;-79
2022/06/27 02:23:27;;;;;;;0.95;0.47;;;;;;;21.16;59.09;101615.13;5083740;28;20040;-79
2022/06/27 02:25:55;;;;;;;0.00;0.00;;;;;;;21.12;59.18;101611.72;5082008;28;20032;-82
2022/06/27 02:28:23;;;;;;;0.20;0.20;;;;;;;21.09;59.45;101608.31;5081440;28;20066;-79
2022/06/27 02:30:50;;;;;;;0.00;0.00;;;;;;;21.07;59.51;101607.50;5071649;28;20402;-80
2022/06/27 02:33:16;;;;;;;0.00;0.00;;;;;;;21.05;59.69;101606.72;5082840;28;20016;-78
2022/06/27 02:35:44;;;;;;;0.32;0.32;;;;;;;21.03;60.02;101604.09;5080419;28;20115;-80
2022/06/27 02:38:11;;;;;;;0.00;0.00;;;;;;;21.03;59.59;101605.94;5081469;28;20047;-80
2022/06/27 02:40:39;;;;;;;0.05;0.05;;;;;;;21.03;59.99;101603.25;5076831;28;20092;-79
2022/06/27 02:43:09;;;;;;;0.20;0.20;;;;;;;21.03;59.88;101606.78;5074132;28;20041;-80
2022/06/27 02:45:37;;;;;;;0.00;0.00;;;;;;;21.03;59.68;101601.41;5070183;28;20029;-78
2022/06/27 02:48:05;;;;;;;0.10;0.10;;;;;;;21.00;59.67;101594.34;5078073;28;20020;-79
2022/06/27 02:50:34;;;;;;;0.00;0.00;;;;;;;21.00;59.67;101597.06;5067800;28;20029;-78
2022/06/27 02:53:07;;;;;;;0.10;0.10;;;;;;;21.00;59.51;101594.34;5067966;28;20025;-80
2022/06/27 02:55:38;;;;;;;0.00;0.00;;;;;;;20.97;59.51;101591.84;5074081;28;20025;-80
2022/06/27 02:58:15;;;;;;;0.00;0.00;;;;;;;20.96;59.47;101573.03;5070278;28;20399;-77
2022/06/27 03:00:43;;;;;;;0.10;0.10;;;;;;;20.91;59.91;101575.09;5066179;28;20081;-78
2022/06/27 03:03:13;;;;;;;0.20;0.20;;;;;;;20.90;59.99;101568.84;5064367;28;20029;-79
2022/06/27 03:05:56;;;;;;;0.05;0.05;;;;;;;20.91;60.26;101573.31;5072354;28;20033;-78
2022/06/27 03:08:22;;;;;;;0.05;0.05;;;;;;;20.81;60.13;101566.63;5083849;28;20032;-79
2022/06/27 03:10:48;;;;;;;0.10;0.10;;;;;;;20.77;59.69;101562.34;5080967;28;20032;-78
2022/06/27 03:13:15;;;;;;;0.00;0.00;;;;;;;20.71;60.26;101563.56;5077721;28;20074;-78
2022/06/27 03:15:41;;;;;;;0.10;0.10;;;;;;;20.63;60.18;101553.13;5078362;28;20583;-78
2022/06/27 03:18:14;;;;;;;0.30;0.25;;;;;;;20.61;60.27;101556.84;5080042;28;20041;-78
2022/06/27 03:20:40;;;;;;;0.10;0.10;;;;;;;20.49;60.24;101555.66;5081895;28;20055;-80
2022/06/27 03:23:07;;;;;;;0.10;0.10;;;;;;;20.42;60.46;101557.78;5077171;28;20036;-80
2022/06/27 03:25:33;;;;;;;0.15;0.15;;;;;;;20.37;60.50;101565.22;5085937;28;20028;-80
2022/06/27 03:27:59;;;;;;;0.10;0.10;;;;;;;20.32;60.79;101565.44;5084730;28;20059;-80
2022/06/27 03:30:25;;;;;;;0.10;0.10;;;;;;;20.28;60.78;101571.94;5078664;28;20092;-78
2022/06/27 03:32:51;;;;;;;0.08;0.08;;;;;;;20.24;61.23;101581.09;5082666;28;20029;-79
2022/06/27 03:35:18;;;;;;;0.10;0.10;;;;;;;20.23;61.01;101578.50;5080484;28;20033;-79
2022/06/27 03:37:44;;;;;;;0.32;0.32;;;;;;;20.22;61.03;101577.63;5078539;28;20020;-78
2022/06/27 03:40:11;;;;;;;0.03;0.03;;;;;;;20.21;61.02;101578.56;5083722;28;20040;-79
2022/06/27 03:42:40;;;;;;;0.10;0.10;;;;;;;20.20;61.03;101580.38;5088675;28;20036;-80
2022/06/27 03:45:10;;;;;;;0.03;0.03;;;;;;;20.16;61.00;101577.91;5088076;28;20039;-79
2022/06/27 03:47:53;;;;;;;0.10;0.10;;;;;;;20.20;61.25;101582.22;5086378;28;20033;-79
2022/06/27 03:50:21;;;;;;;0.32;0.32;;;;;;;20.11;61.25;101579.97;5084209;28;20024;-80
2022/06/27 03:52:48;;;;;;;0.30;0.30;;;;;;;20.10;61.29;101572.81;5083860;28;20543;-81
2022/06/27 03:55:16;;;;;;;0.10;0.10;;;;;;;20.09;61.35;101565.69;5076484;28;20025;-80
2022/06/27 03:57:58;;;;;;;0.10;0.10;;;;;;;20.13;61.09;101541.28;5086074;28;20035;-80
2022/06/27 04:00:27;;;;;;;0.00;0.00;;;;;;;20.08;61.30;101548.69;5080380;28;20051;-78
2022/06/27 04:02:53;;;;;;;0.20;0.20;;;;;;;20.07;61.16;101541.56;5085348;28;20030;-80
2022/06/27 04:05:19;;;;;;;0.57;0.57;;;;;;;20.08;61.45;101554.06;5083377;28;20028;-80
2022/06/27 04:07:46;;;;;;;0.10;0.10;;;;;;;20.09;61.51;101557.63;5079048;28;20077;-80
2022/06/27 04:10:13;;;;;;;0.00;0.00;;;;;;;20.10;61.68;101564.75;5079814;28;20024;-79
2022/06/27 04:12:41;;;;;;;0.10;0.10;;;;;;;20.12;61.78;101565.56;5078976;28;20033;-79
2022/06/27 04:15:08;;;;;;;0.10;0.10;;;;;;;20.16;61.69;101565.34;5077285;28;20060;-77
2022/06/27 04:17:35;;;;;;;1.38;0.35;;;;;;;20.22;61.85;101561.47;5079524;28;20032;-79
2022/06/27 04:20:01;;;;;;;0.10;0.10;;;;;;;20.27;62.14;101566.63;5074573;28;20051;-79
2022/06/27 04:22:28;;;;;;;0.10;0.10;;;;;;;20.30;61.91;101570.03;5074233;28;20562;-79
2022/06/27 04:24:55;;;;;;;0.20;0.20;;;;;;;20.38;61.38;101582.25;5081203;28;20046;-81
2022/06/27 04:27:22;;;;;;;0.20;0.20;;;;;;;20.43;61.39;101582.91;5082477;28;20025;-80
2022/06/27 04:29:48;;;;;;;0.55;0.43;;;;;;;20.49;61.36;101575.38;5074831;28;20024;-81
2022/06/27 04:32:17;;;;;;;0.30;0.30;;;;;;;20.55;61.24;101563.44;5074320;28;20043;-82
2022/06/27 04:34:44;;;;;;;0.00;0.00;;;;;;;20.60;61.20;101545.22;5081337;28;20052;-81
2022/06/27 04:37:11;;;;;;;0.00;0.00;;;;;;;20.64;60.92;101524.41;5071898;28;20029;-79
2022/06/27 04:39:40;;;;;;;0.10;0.10;;;;;;;20.71;60.82;101514.16;5079262;28;20025;-78
2022/06/27 04:42:07;;;;;;;0.10;0.10;;;;;;;20.72;60.59;101516.81;5085944;28;20082;-80
2022/06/27 04:44:34;;;;;;;0.35;0.35;;;;;;;20.74;61.04;101532.91;5085526;28;20039;-81
2022/06/27 04:47:02;;;;;;;0.10;0.10;;;;;;;20.75;60.80;101526.56;5083962;28;20036;-81
2022/06/27 04:49:28;;;;;;;0.10;0.10;;;;;;;20.77;60.91;101530.03;5084879;28;20025;-79
2022/06/27 04:51:56;;;;;;;0.30;0.30;;;;;;;20.77;60.99;101517.47;5083003;28;20064;-80
2022/06/27 04:54:22;;;;;;;0.45;0.45;;;;;;;20.76;61.22;101506.75;5088297;28;20054;-79
2022/06/27 04:56:49;;;;;;;0.10;0.10;;;;;;;20.77;61.21;101503.13;5085035;28;20047;-81
2022/06/27 04:59:16;;;;;;;0.10;0.10;;;;;;;20.81;61.10;101510.06;5078713;28;20036;-80
2022/06/27 05:01:42;;;;;;;0.10;0.10;;;;;;;20.82;61.15;101506.44;5073986;28;20017;-81
2022/06/27 05:04:08;;;;;;;0.03;0.03;;;;;;;20.84;60.97;101509.94;5085458;28;20020;-82
2022/06/27 05:06:35;;;;;;;0.10;0.10;;;;;;;20.82;61.09;101515.41;5085930;28;20060;-82
2022/06/27 05:09:01;;;;;;;0.10;0.10;;;;;;;20.80;61.12;101513.75;5080466;28;20032;-81
2022/06/27 05:11:27;;;;;;;0.30;0.25;;;;;;;20.77;61.01;101520.16;5074107;28;20037;-80
2022/06/27 05:13:53;;;;;;;0.25;0.25;;;;;;;20.74;61.14;101524.84;5090210;28;20051;-80
2022/06/27 05:16:19;;;;;;;0.20;0.20;;;;;;;20.72;61.24;101537.50;5078726;28;20027;-81
2022/06/27 05:18:46;;;;;;;0.05;0.05;;;;;;;20.69;61.37;101536.66;5083139;28;20032;-81
2022/06/27 05:21:12;;;;;;;0.05;0.05;;;;;;;20.69;61.62;101520.50;5083626;28;20040;-78
2022/06/27 05:23:38;;;;;;;0.10;0.10;;;;;;;20.75;61.42;101522.06;5085075;28;20060;-79
2022/06/27 05:26:05;;;;;;;0.47;0.47;;;;;;;20.81;61.58;101542.38;5078312;28;20032;-81
2022/06/27 05:28:32;;;;;;;0.10;0.10;;;;;;;20.89;61.38;101544.72;5084780;28;20107;-81
2022/06/27 05:30:58;;;;;;;0.10;0.10;;;;;;;20.92;61.39;101553.50;5075197;28;20032;-79
2022/06/27 05:33:25;;;;;;;0.10;0.10;;;;;;;20.99;61.34;101545.97;5083952;28;20124;-80
2022/06/27 05:35:52;;;;;;;1.35;1.25;;;;;;;21.02;61.04;101561.94;5081477;28;20108;-81
2022/06/27 05:38:18;;;;;;;0.05;0.05;;;;;;;21.07;61.45;101580.56;5073406;22;20103;-80
2022/06/27 05:40:45;;;;;;;0.10;0.10;;;;;;;21.11;61.25;101565.97;5049561;28;20389;-80
2022/06/27 05:43:14;;;;;;;0.10;0.10;;;;;;;21.16;61.42;101572.88;5047645;28;20997;-80
2022/06/27 05:45:40;;;;;;;0.10;0.10;;;;;;;21.21;61.22;101572.63;5047762;28;20029;-80
2022/06/27 05:48:07;;;;;;;0.20;0.20;;;;;;;21.26;60.76;101580.44;5044970;28;20020;-80
2022/06/27 05:50:33;;;;;;;0.75;0.75;;;;;;;21.31;61.08;101590.06;5051047;28;20056;-80
2022/06/27 05:53:01;;;;;;;0.85;0.63;;;;;;;21.34;60.69;101573.69;5052352;28;20040;-80
2022/06/27 05:55:28;;;;;;;0.03;0.03;;;;;;;21.41;60.64;101578.75;5045510;28;20029;-80
2022/06/27 05:57:55;;;;;;;0.32;0.32;;;;;;;21.42;60.70;101592.19;5048921;28;20029;-80
2022/06/27 06:00:23;;;;;;;0.03;0.03;;;;;;;21.47;60.46;101603.56;5049942;28;20156;-80
2022/06/27 06:02:49;;;;;;;0.03;0.03;;;;;;;21.53;60.38;101609.59;5045437;28;20029;-79
2022/06/27 06:05:15;;;;;;;7.72;1.08;;;;;;;21.59;60.56;101609.28;5048814;28;20029;-79
2022/06/27 06:07:43;;;;;;;0.10;0.10;;;;;;;21.64;60.52;101608.06;5048803;28;20040;-79
2022/06/27 06:10:10;;;;;;;0.08;0.08;;;;;;;21.69;60.09;101615.06;5052759;28;20058;-80
2022/06/27 06:12:36;;;;;;;0.00;0.00;;;;;;;21.75;59.54;101612.88;5052481;28;20033;-79
2022/06/27 06:15:03;;;;;;;0.10;0.10;;;;;;;21.79;59.48;101616.28;5051820;28;20032;-79
2022/06/27 06:17:33;;;;;;;0.25;0.25;;;;;;;21.84;59.38;101618.75;5055920;28;20477;-80
2022/06/27 06:19:59;;;;;;;0.00;0.00;;;;;;;21.91;59.40;101621.00;5053947;28;20063;-80
2022/06/27 06:22:26;;;;;;;0.08;0.08;;;;;;;21.97;59.21;101617.97;5051956;28;20055;-79
2022/06/27 06:24:52;;;;;;;0.50;0.50;;;;;;;22.05;59.15;101606.72;5052706;28;20025;-80
2022/06/27 06:27:20;;;;;;;0.00;0.00;;;;;;;22.13;59.17;101592.78;5049091;28;20040;-80
2022/06/27 06:29:47;;;;;;;0.10;0.10;;;;;;;22.17;58.80;101605.19;5046960;28;20083;-80
2022/06/27 06:32:14;;;;;;;0.15;0.15;;;;;;;22.23;59.04;101629.13;5046320;28;20061;-80
2022/06/27 06:34:41;;;;;;;1.85;1.08;;;;;;;22.32;58.90;101640.34;5047988;28;20169;-80
2022/06/27 06:37:09;;;;;;;0.10;0.10;;;;;;;22.38;58.75;101650.81;5045316;28;20049;-80
2022/06/27 06:39:36;;;;;;;0.35;0.35;;;;;;;22.42;58.62;101655.09;5047564;28;20044;-80
2022/06/27 06:42:03;;;;;;;0.10;0.10;;;;;;;22.47;58.59;101666.50;5046874;28;20424;-80
2022/06/27 06:44:29;;;;;;;0.10;0.10;;;;;;;22.47;58.45;101666.50;5050880;28;20115;-80
2022/06/27 06:46:56;;;;;;;0.25;0.25;;;;;;;22.49;58.17;101661.88;5049387;28;20036;-80
2022/06/27 06:49:22;;;;;;;0.43;0.43;;;;;;;22.49;58.13;101659.16;5048071;28;20052;-80
2022/06/27 06:51:50;;;;;;;0.00;0.00;;;;;;;22.48;58.14;101653.88;5043003;28;20032;-80
2022/06/27 06:54:20;;;;;;;0.00;0.00;;;;;;;22.49;58.15;101629.47;5042145;28;20041;-80
2022/06/27 06:56:49;;;;;;;0.10;0.10;;;;;;;22.48;58.33;101610.66;5048268;28;20111;-80
2022/06/27 06:59:17;;;;;;;0.38;0.38;;;;;;;22.49;58.48;101605.16;5039808;28;20025;-80
2022/06/27 07:01:43;;;;;;;0.10;0.10;;;;;;;22.51;58.64;101581.66;5044468;28;20493;-78
2022/06/27 07:04:11;;;;;;;3.72;0.73;;;;;;;22.51;58.64;101565.44;5045380;28;20551;-79
2022/06/27 07:06:38;;;;;;;0.10;0.10;;;;;;;22.53;58.57;101574.34;5042458;28;20052;-78
2022/06/27 07:09:04;;;;;;;0.05;0.05;;;;;;;22.56;58.57;101584.09;5046163;28;20017;-78
2022/06/27 07:11:32;;;;;;;0.10;0.10;;;;;;;22.58;58.53;101564.13;5049880;28;20453;-78
2022/06/27 07:13:59;;;;;;;0.10;0.10;;;;;;;22.61;58.22;101558.53;5052913;28;20119;-78
2022/06/27 07:16:26;;;;;;;0.10;0.10;;;;;;;22.65;58.02;101558.38;5047139;28;20033;-78
2022/06/27 07:18:56;;;;;;;0.10;0.10;;;;;;;22.67;57.92;101559.13;5044089;28;20022;-77
2022/06/27 07:21:26;;;;;;;0.00;0.00;;;;;;;22.67;58.29;101564.53;5051893;28;20033;-78
2022/06/27 07:23:53;;;;;;;0.10;0.10;;;;;;;22.67;58.42;101572.63;5046632;28;20036;-78
2022/06/27 07:26:21;;;;;;;0.10;0.10;;;;;;;22.69;58.22;101571.59;5048617;28;20029;-78
2022/06/27 07:28:48;;;;;;;0.10;0.10;;;;;;;22.76;58.35;101581.06;5055533;28;20017;-78
2022/06/27 07:31:15;;;;;;;0.10;0.10;;;;;;;22.82;58.08;101587.94;5043165;28;20025;-78
2022/06/27 07:33:44;;;;;;;0.50;0.50;;;;;;;22.88;57.74;101589.38;5057503;28;20100;-78
2022/06/27 07:36:14;;;;;;;0.10;0.10;;;;;;;22.91;57.46;101587.38;5049038;28;20059;-78
2022/06/27 07:38:41;;;;;;;0.00;0.00;;;;;;;22.91;57.19;101600.88;5051823;28;20405;-78
2022/06/27 07:41:09;;;;;;;0.10;0.10;;;;;;;22.89;56.50;101608.22;5041968;28;20390;-79
2022/06/27 07:43:37;;;;;;;0.00;0.00;;;;;;;22.86;56.88;101612.94;5038258;28;20573;-79
2022/06/27 07:46:05;;;;;;;0.35;0.35;;;;;;;22.79;56.78;101623.22;5050306;28;20811;-79
2022/06/27 07:48:31;;;;;;;0.70;0.70;;;;;;;22.76;56.99;101618.88;5055207;28;20053;-79
2022/06/27 07:50:58;;;;;;;0.10;0.10;;;;;;;22.81;57.31;101610.50;5056744;28;20033;-79
2022/06/27 07:53:25;;;;;;;0.10;0.10;;;;;;;22.83;57.44;101607.72;5057579;28;20495;-79
2022/06/27 07:58:33;;;;;;;0.10;0.10;;;;;;;22.85;57.32;101611.19;5104212;27;20414;-81
2022/06/27 08:01:03;;;;;;;0.10;0.10;;;;;;;22.87;57.29;101625.50;5094677;28;20618;-78
2022/06/27 08:03:36;;;;;;;0.35;0.35;;;;;;;22.86;57.45;101635.41;5101962;28;20032;-78
2022/06/27 08:06:05;;;;;;;0.10;0.10;;;;;;;22.88;57.25;101633.50;5100699;28;20034;-77
2022/06/27 08:08:33;;;;;;;0.88;0.65;;;;;;;22.87;57.15;101617.38;5101263;28;20213;-79
2022/06/27 08:11:00;;;;;;;0.38;0.38;;;;;;;22.94;57.46;101607.94;5100692;28;20030;-78
2022/06/27 08:13:28;;;;;;;0.08;0.08;;;;;;;23.03;57.38;101622.72;5100402;28;20035;-77
2022/06/27 08:15:55;;;;;;;0.10;0.10;;;;;;;23.09;57.16;101627.75;5090636;28;20107;-77
2022/06/27 08:18:22;;;;;;;0.13;0.13;;;;;;;23.13;57.09;101618.50;5101633;28;20038;-78
2022/06/27 08:20:48;;;;;;;0.30;0.30;;;;;;;23.17;57.07;101611.97;5097751;28;20406;-78
2022/06/27 08:23:15;;;;;;;0.50;0.50;;;;;;;23.18;56.83;101596.63;5107659;28;20032;-77
2022/06/27 08:25:42;;;;;;;0.00;0.00;;;;;;;23.20;57.10;101606.41;5108293;28;20036;-77
2022/06/27 08:28:10;;;;;;;0.00;0.00;;;;;;;23.23;56.89;101613.44;5107933;28;20081;-78
2022/06/27 08:30:37;;;;;;;0.17;0.17;;;;;;;23.24;56.54;101615.16;5090902;28;20036;-77
2022/06/27 08:33:04;;;;;;;0.10;0.10;;;;;;;23.31;56.85;101623.78;5106714;28;20020;-78
2022/06/27 08:35:30;;;;;;;0.10;0.10;;;;;;;23.41;56.84;101612.31;5109317;28;20028;-78
2022/06/27 08:37:58;;;;;;;0.10;0.10;;;;;;;23.50;55.96;101623.50;5090137;28;20035;-77
2022/06/27 08:40:26;;;;;;;0.30;0.30;;;;;;;23.55;56.02;101624.97;5094504;28;20042;-77
2022/06/27 08:42:55;;;;;;;0.10;0.10;;;;;;;23.63;56.30;101639.81;5092178;28;20074;-77
2022/06/27 08:45:24;;;;;;;0.10;0.10;;;;;;;23.69;56.47;101648.44;5092921;28;20085;-75
2022/06/27 08:47:50;;;;;;;0.05;0.05;;;;;;;23.76;56.18;101651.63;5090163;28;20020;-76
2022/06/27 08:50:17;;;;;;;0.10;0.10;;;;;;;23.81;56.17;101657.59;5094285;28;20156;-76
2022/06/27 08:52:47;;;;;;;0.38;0.38;;;;;;;23.82;55.37;101663.91;5104780;28;20050;-80
2022/06/27 08:55:13;;;;;;;0.17;0.17;;;;;;;23.83;55.34;101669.22;5099771;28;20028;-78
2022/06/27 08:57:42;;;;;;;0.10;0.10;;;;;;;23.80;55.05;101666.72;5099122;28;20024;-79
2022/06/27 09:00:11;;;;;;;0.30;0.30;;;;;;;23.77;55.38;101672.31;5097893;28;20035;-78
2022/06/27 09:02:42;;;;;;;0.40;0.40;;;;;;;23.74;56.00;101665.25;5099057;28;20031;-82
2022/06/27 09:05:27;;;;;;;0.40;0.40;;;;;;;23.81;55.65;101670.28;5107637;28;20032;-79
2022/06/27 09:07:57;;;;;;;0.55;0.55;;;;;;;23.73;55.85;101681.59;5099286;28;20036;-78
2022/06/27 09:13:11;;;;;;;0.00;0.00;;;;;;;23.74;55.92;101683.34;5101899;27;20411;-77
2022/06/27 09:18:16;;;;;;;0.10;0.10;;;;;;;23.65;55.94;101673.97;5101580;27;1179134;-76
2022/06/27 09:20:48;;;;;;;0.10;0.10;;;;;;;23.66;56.04;101669.41;5111453;28;20055;-76
2022/06/27 09:26:15;;;;;;;0.77;0.77;;;;;;;23.59;56.57;101650.84;5097693;27;1183220;-76
2022/06/27 09:28:45;;;;;;;0.10;0.10;;;;;;;23.59;56.39;101661.69;5118048;27;20028;-76
2022/06/27 09:31:30;;;;;;;1.23;0.90;;;;;;;23.58;56.40;101659.06;5128405;27;20394;-76
2022/06/27 09:34:08;;;;;;;0.08;0.08;;;;;;;23.64;56.67;101665.91;5129433;27;20104;-76
2022/06/27 09:36:36;;;;;;;0.10;0.10;;;;;;;23.67;56.76;101663.91;5128396;27;20022;-76
2022/06/27 09:39:04;;;;;;;0.30;0.30;;;;;;;23.72;56.49;101661.75;5126840;27;20056;-76
2022/06/27 09:41:32;;;;;;;1.17;1.00;;;;;;;23.78;57.01;101663.22;5128680;27;20023;-76
2022/06/27 09:44:06;;;;;;;0.10;0.10;;;;;;;23.88;56.50;101669.78;5129303;27;20481;-76
2022/06/27 09:46:42;;;;;;;0.08;0.08;;;;;;;23.92;56.12;101672.34;5124056;27;20023;-76
2022/06/27 09:49:12;;;;;;;0.45;0.45;;;;;;;23.99;55.86;101679.09;5122205;28;20102;-78
2022/06/27 09:51:40;;;;;;;0.10;0.10;;;;;;;23.97;55.35;101675.63;5127277;27;20028;-78
2022/06/27 09:54:11;;;;;;;0.10;0.10;;;;;;;24.01;55.76;101677.16;5128757;27;20134;-78
2022/06/27 09:56:42;;;;;;;0.20;0.20;;;;;;;24.05;55.27;101666.06;5128963;27;20076;-78
2022/06/27 09:59:12;;;;;;;0.45;0.45;;;;;;;24.11;54.94;101661.22;5128972;27;20401;-78
2022/06/27 10:01:41;;;;;;;0.98;0.43;;;;;;;24.18;55.71;101668.81;5126460;27;20038;-77
2022/06/27 10:04:08;;;;;;;0.00;0.00;;;;;;;24.27;55.38;101667.38;5129053;27;20066;-78
2022/06/27 10:06:38;;;;;;;0.00;0.00;;;;;;;24.37;54.93;101673.06;5125502;27;20034;-78
2022/06/27 10:09:08;;;;;;;0.05;0.05;;;;;;;24.45;54.20;101669.84;5130436;27;20028;-78
2022/06/27 10:11:36;;;;;;;0.10;0.10;;;;;;;24.58;54.36;101668.06;5128626;27;20023;-78
2022/06/27 10:14:23;;;;;;;0.10;0.10;;;;;;;24.81;53.73;101671.09;5130505;27;20027;-78
2022/06/27 10:16:52;;;;;;;0.10;0.10;;;;;;;24.84;53.73;101666.34;5119947;27;20027;-78
2022/06/27 10:19:19;;;;;;;0.30;0.30;;;;;;;24.83;52.60;101659.19;5129227;27;20093;-78
2022/06/27 10:21:48;;;;;;;0.20;0.20;;;;;;;24.86;53.46;101664.41;5127836;28;20061;-78
2022/06/27 10:24:29;;;;;;;0.10;0.10;;;;;;;24.87;52.22;101674.28;5129473;27;20031;-78
2022/06/27 10:26:57;;;;;;;0.20;0.20;;;;;;;24.77;53.32;101675.84;5127747;28;20737;-78
2022/06/27 10:32:28;;;;;;;0.10;0.10;;;;;;;24.71;52.25;101670.84;5060141;28;20404;-78
2022/06/27 10:43:00;;;;;;;0.30;0.30;;;;;;;24.65;53.44;101671.25;5066141;28;20410;-76
2022/06/27 10:45:27;;;;;;;0.20;0.20;;;;;;;24.65;53.88;101671.25;5067100;28;20108;-76
2022/06/27 10:47:55;;;;;;;0.10;0.10;;;;;;;24.64;53.11;101672.22;5070132;28;20047;-78
2022/06/27 10:50:26;;;;;;;0.98;0.98;;;;;;;24.60;53.36;101667.94;5070514;28;20037;-78
2022/06/27 10:53:21;;;;;;;0.10;0.10;;;;;;;24.63;53.87;101679.44;5069071;28;20513;-78
2022/06/27 10:55:47;;;;;;;0.65;0.57;;;;;;;24.51;54.01;101667.59;5069020;28;20116;-78
2022/06/27 10:58:31;;;;;;;0.10;0.10;;;;;;;24.58;53.81;101659.06;5065276;28;20101;-78
2022/06/27 11:01:13;;;;;;;0.10;0.10;;;;;;;24.66;54.18;101667.56;5062584;28;20025;-77
2022/06/27 11:03:40;;;;;;;0.15;0.15;;;;;;;24.66;54.14;101665.75;5052947;28;20044;-76
2022/06/27 11:06:08;;;;;;;0.10;0.10;;;;;;;24.69;53.54;101665.53;5058561;28;20040;-76
2022/06/27 11:08:38;;;;;;;0.20;0.20;;;;;;;24.78;53.96;101665.91;5049347;28;20041;-77
2022/06/27 11:11:06;;;;;;;0.10;0.10;;;;;;;24.76;53.50;101657.88;5051741;28;20030;-77
2022/06/27 11:20:04;;;;;;;0.17;0.17;;;;;;;24.70;54.41;101672.69;4874394;27;5892680;-76
2022/06/27 11:22:00;;;;;;;0.10;0.10;;;;;;;24.59;53.51;101674.38;5041835;28;20073;-75
2022/06/27 11:24:26;;;;;;;0.35;0.22;;;;;;;24.51;54.12;101686.56;5040158;28;20064;-75
2022/06/27 11:26:54;;;;;;;0.45;0.45;;;;;;;24.43;54.31;101677.22;5039664;28;20095;-75
2022/06/27 11:32:11;;;;;;;0.13;0.13;;;;;;;24.27;54.28;101677.34;5028796;28;20041;-76
2022/06/27 11:37:22;;;;;;;0.28;0.28;;;;;;;24.19;54.52;101697.66;5157147;22;20377;-82
2022/06/27 11:40:07;;;;;;;0.20;0.20;;;;;;;24.21;54.63;101703.84;5126082;28;20047;-82
2022/06/27 11:42:35;;;;;;;0.10;0.10;;;;;;;24.11;55.09;101699.97;5118642;28;20285;-83
2022/06/27 11:47:44;;;;;;;0.13;0.13;;;;;;;23.95;55.08;101693.78;5168425;27;20409;-83
2022/06/27 11:50:13;;;;;;;0.10;0.10;;;;;;;23.84;55.19;101694.44;5162269;27;20038;-82
2022/06/27 11:52:44;;;;;;;0.10;0.10;;;;;;;23.70;54.95;101696.19;5154657;27;20027;-82
2022/06/27 11:55:13;;;;;;;0.73;0.73;;;;;;;23.61;55.76;101695.88;5160257;27;20025;-81
2022/06/27 12:00:23;;;;;;;0.28;0.28;;;;;;;23.51;55.88;101680.19;5073407;28;20387;-84
2022/06/27 12:05:39;;;;;;;0.10;0.10;;;;;;;23.55;57.89;101660.13;5120273;27;1176710;-86
2022/06/27 12:08:09;;;;;;;0.17;0.17;;;;;;;23.64;57.35;101657.81;5123923;27;20032;-79
2022/06/27 12:13:15;;;;;;;0.40;0.40;;;;;;;23.69;57.97;101656.56;5093710;27;20133;-83
2022/06/27 12:15:46;;;;;;;0.22;0.22;;;;;;;23.69;57.12;101666.50;5094787;28;20060;-83